sensor_id;sensor_type;location;lat;lon;timestamp;temperature;humidity
12384;DHT22;6256;63.808;20.336;2023-09-19T00:00:22;12.90;99.90
12384;DHT22;6256;63.808;20.336;2023-09-19T00:02:54;12.90;99.90
12384;DHT22;6256;63.808;20.336;2023-09-19T00:05:20;12.90;99.90
12384;DHT22;6256;63.808;20.336;2023-09-19T00:07:50;12.90;99.90
12384;DHT22;6256;63.808;20.336;2023-09-19T00:10:16;12.90;99.90
12384;DHT22;6256;63.808;20.336;2023-09-19T00:12:45;13.00;99.90
12384;DHT22;6256;63.808;20.336;2023-09-19T00:15:11;13.00;99.90
12384;DHT22;6256;63.808;20.336;2023-09-19T00:17:37;13.00;99.90
12384;DHT22;6256;63.808;20.336;2023-09-19T00:20:03;13.00;99.90
12384;DHT22;6256;63.808;20.336;2023-09-19T00:22:39;13.00;99.90
12384;DHT22;6256;63.808;20.336;2023-09-19T00:25:06;13.00;99.90
12384;DHT22;6256;63.808;20.336;2023-09-19T00:27:32;13.00;99.90
12384;DHT22;6256;63.808;20.336;2023-09-19T00:29:59;13.00;99.90
12384;DHT22;6256;63.808;20.336;2023-09-19T00:32:25;13.00;99.90
12384;DHT22;6256;63.808;20.336;2023-09-19T00:34:57;13.00;99.90
12384;DHT22;6256;63.808;20.336;2023-09-19T00:37:23;13.00;99.90
12384;DHT22;6256;63.808;20.336;2023-09-19T00:39:48;13.00;99.90
12384;DHT22;6256;63.808;20.336;2023-09-19T00:42:21;13.00;99.90
12384;DHT22;6256;63.808;20.336;2023-09-19T00:44:47;12.90;99.90
12384;DHT22;6256;63.808;20.336;2023-09-19T00:47:17;12.90;99.90
12384;DHT22;6256;63.808;20.336;2023-09-19T00:49:44;12.90;99.90
12384;DHT22;6256;63.808;20.336;2023-09-19T00:52:14;12.90;99.90
12384;DHT22;6256;63.808;20.336;2023-09-19T00:54:41;12.90;99.90
12384;DHT22;6256;63.808;20.336;2023-09-19T00:57:06;12.90;99.90
12384;DHT22;6256;63.808;20.336;2023-09-19T00:59:34;12.90;99.90
12384;DHT22;6256;63.808;20.336;2023-09-19T01:02:02;12.90;99.90
12384;DHT22;6256;63.808;20.336;2023-09-19T01:04:29;12.80;99.90
12384;DHT22;6256;63.808;20.336;2023-09-19T01:06:54;12.80;99.90
12384;DHT22;6256;63.808;20.336;2023-09-19T01:09:20;12.80;99.90
12384;DHT22;6256;63.808;20.336;2023-09-19T01:11:49;12.80;99.90
12384;DHT22;6256;63.808;20.336;2023-09-19T01:14:34;12.80;99.90
12384;DHT22;6256;63.808;20.336;2023-09-19T01:17:08;12.80;99.90
12384;DHT22;6256;63.808;20.336;2023-09-19T01:30:57;12.80;99.90
12384;DHT22;6256;63.808;20.336;2023-09-19T01:33:24;12.80;99.90
12384;DHT22;6256;63.808;20.336;2023-09-19T01:35:53;12.80;99.90
12384;DHT22;6256;63.808;20.336;2023-09-19T01:38:23;12.70;99.90
12384;DHT22;6256;63.808;20.336;2023-09-19T01:40:58;12.70;99.90
12384;DHT22;6256;63.808;20.336;2023-09-19T01:43:38;12.70;99.90
12384;DHT22;6256;63.808;20.336;2023-09-19T01:46:14;12.70;99.90
12384;DHT22;6256;63.808;20.336;2023-09-19T01:48:46;12.70;99.90
12384;DHT22;6256;63.808;20.336;2023-09-19T01:51:31;12.70;99.90
12384;DHT22;6256;63.808;20.336;2023-09-19T01:54:09;12.70;99.90
12384;DHT22;6256;63.808;20.336;2023-09-19T01:56:53;12.70;99.90
12384;DHT22;6256;63.808;20.336;2023-09-19T01:59:34;12.70;99.90
12384;DHT22;6256;63.808;20.336;2023-09-19T02:02:01;12.70;99.90
12384;DHT22;6256;63.808;20.336;2023-09-19T02:04:27;12.70;99.90
12384;DHT22;6256;63.808;20.336;2023-09-19T02:06:53;12.70;99.90
12384;DHT22;6256;63.808;20.336;2023-09-19T02:09:19;12.70;99.90
12384;DHT22;6256;63.808;20.336;2023-09-19T02:11:44;12.60;99.90
12384;DHT22;6256;63.808;20.336;2023-09-19T02:14:10;12.60;99.90
12384;DHT22;6256;63.808;20.336;2023-09-19T02:16:36;12.60;99.90
12384;DHT22;6256;63.808;20.336;2023-09-19T02:19:02;12.70;99.90
12384;DHT22;6256;63.808;20.336;2023-09-19T02:21:31;12.60;99.90
12384;DHT22;6256;63.808;20.336;2023-09-19T02:23:57;12.70;99.90
12384;DHT22;6256;63.808;20.336;2023-09-19T02:26:24;12.70;99.90
12384;DHT22;6256;63.808;20.336;2023-09-19T02:28:50;12.70;99.90
12384;DHT22;6256;63.808;20.336;2023-09-19T02:31:16;12.70;99.90
12384;DHT22;6256;63.808;20.336;2023-09-19T02:33:42;12.70;99.90
12384;DHT22;6256;63.808;20.336;2023-09-19T02:36:08;12.70;99.90
12384;DHT22;6256;63.808;20.336;2023-09-19T02:38:34;12.80;99.90
12384;DHT22;6256;63.808;20.336;2023-09-19T02:41:00;12.80;99.90
12384;DHT22;6256;63.808;20.336;2023-09-19T02:43:27;12.80;99.90
12384;DHT22;6256;63.808;20.336;2023-09-19T02:45:53;12.80;99.90
12384;DHT22;6256;63.808;20.336;2023-09-19T02:48:22;12.80;99.90
12384;DHT22;6256;63.808;20.336;2023-09-19T02:50:51;12.80;99.90
12384;DHT22;6256;63.808;20.336;2023-09-19T02:53:17;12.80;99.90
12384;DHT22;6256;63.808;20.336;2023-09-19T02:55:44;12.90;99.90
12384;DHT22;6256;63.808;20.336;2023-09-19T02:58:10;12.90;99.90
12384;DHT22;6256;63.808;20.336;2023-09-19T03:00:39;12.90;99.90
12384;DHT22;6256;63.808;20.336;2023-09-19T03:03:07;12.90;99.90
12384;DHT22;6256;63.808;20.336;2023-09-19T03:05:34;12.90;99.90
12384;DHT22;6256;63.808;20.336;2023-09-19T03:08:00;12.80;99.90
12384;DHT22;6256;63.808;20.336;2023-09-19T03:10:27;12.80;99.90
12384;DHT22;6256;63.808;20.336;2023-09-19T03:12:53;12.70;99.90
12384;DHT22;6256;63.808;20.336;2023-09-19T03:15:19;12.70;99.90
12384;DHT22;6256;63.808;20.336;2023-09-19T03:17:46;12.70;99.90
12384;DHT22;6256;63.808;20.336;2023-09-19T03:20:13;12.70;99.90
12384;DHT22;6256;63.808;20.336;2023-09-19T03:22:39;12.70;99.90
12384;DHT22;6256;63.808;20.336;2023-09-19T03:25:06;12.60;99.90
12384;DHT22;6256;63.808;20.336;2023-09-19T03:27:34;12.60;99.90
12384;DHT22;6256;63.808;20.336;2023-09-19T03:30:00;12.60;99.90
12384;DHT22;6256;63.808;20.336;2023-09-19T03:32:26;12.50;99.90
12384;DHT22;6256;63.808;20.336;2023-09-19T03:34:52;12.50;99.90
12384;DHT22;6256;63.808;20.336;2023-09-19T03:37:17;12.50;99.90
12384;DHT22;6256;63.808;20.336;2023-09-19T03:39:43;12.50;99.90
12384;DHT22;6256;63.808;20.336;2023-09-19T03:42:09;12.40;99.90
12384;DHT22;6256;63.808;20.336;2023-09-19T03:44:35;12.40;99.90
12384;DHT22;6256;63.808;20.336;2023-09-19T03:47:00;12.40;99.90
12384;DHT22;6256;63.808;20.336;2023-09-19T03:49:26;12.40;99.90
12384;DHT22;6256;63.808;20.336;2023-09-19T03:51:52;12.40;99.90
12384;DHT22;6256;63.808;20.336;2023-09-19T03:54:18;12.30;99.90
12384;DHT22;6256;63.808;20.336;2023-09-19T03:56:44;12.30;99.90
12384;DHT22;6256;63.808;20.336;2023-09-19T03:59:11;12.30;99.90
12384;DHT22;6256;63.808;20.336;2023-09-19T04:01:37;12.30;99.90
12384;DHT22;6256;63.808;20.336;2023-09-19T04:04:03;12.30;99.90
12384;DHT22;6256;63.808;20.336;2023-09-19T04:06:34;12.20;99.90
12384;DHT22;6256;63.808;20.336;2023-09-19T04:09:03;12.20;99.90
12384;DHT22;6256;63.808;20.336;2023-09-19T04:11:29;12.20;99.90
12384;DHT22;6256;63.808;20.336;2023-09-19T04:13:56;12.20;99.90
12384;DHT22;6256;63.808;20.336;2023-09-19T04:16:22;12.20;99.90
12384;DHT22;6256;63.808;20.336;2023-09-19T04:18:48;12.10;99.90
12384;DHT22;6256;63.808;20.336;2023-09-19T04:21:13;12.10;99.90
12384;DHT22;6256;63.808;20.336;2023-09-19T04:23:39;12.10;99.90
12384;DHT22;6256;63.808;20.336;2023-09-19T04:26:05;12.10;99.90
12384;DHT22;6256;63.808;20.336;2023-09-19T04:28:31;12.00;99.90
12384;DHT22;6256;63.808;20.336;2023-09-19T04:31:02;12.00;99.90
12384;DHT22;6256;63.808;20.336;2023-09-19T04:33:28;12.00;99.90
12384;DHT22;6256;63.808;20.336;2023-09-19T04:35:54;12.00;99.90
12384;DHT22;6256;63.808;20.336;2023-09-19T04:38:20;12.00;99.90
12384;DHT22;6256;63.808;20.336;2023-09-19T04:40:46;12.00;99.90
12384;DHT22;6256;63.808;20.336;2023-09-19T04:43:12;12.00;99.90
12384;DHT22;6256;63.808;20.336;2023-09-19T04:45:39;12.00;99.90
12384;DHT22;6256;63.808;20.336;2023-09-19T04:48:06;12.00;99.90
12384;DHT22;6256;63.808;20.336;2023-09-19T04:50:35;12.00;99.90
12384;DHT22;6256;63.808;20.336;2023-09-19T04:53:00;12.00;99.90
12384;DHT22;6256;63.808;20.336;2023-09-19T04:55:26;12.00;99.90
12384;DHT22;6256;63.808;20.336;2023-09-19T04:57:53;12.00;99.90
12384;DHT22;6256;63.808;20.336;2023-09-19T05:00:22;12.00;99.90
12384;DHT22;6256;63.808;20.336;2023-09-19T05:02:56;12.00;99.90
12384;DHT22;6256;63.808;20.336;2023-09-19T05:05:23;12.00;99.90
12384;DHT22;6256;63.808;20.336;2023-09-19T05:07:49;12.00;99.90
12384;DHT22;6256;63.808;20.336;2023-09-19T05:10:16;12.10;99.90
12384;DHT22;6256;63.808;20.336;2023-09-19T05:12:44;12.10;99.90
12384;DHT22;6256;63.808;20.336;2023-09-19T05:15:13;12.10;99.90
12384;DHT22;6256;63.808;20.336;2023-09-19T05:17:40;12.10;99.90
12384;DHT22;6256;63.808;20.336;2023-09-19T05:20:06;12.10;99.90
12384;DHT22;6256;63.808;20.336;2023-09-19T05:22:37;12.10;99.90
12384;DHT22;6256;63.808;20.336;2023-09-19T05:25:05;12.10;99.90
12384;DHT22;6256;63.808;20.336;2023-09-19T05:27:32;12.10;99.90
12384;DHT22;6256;63.808;20.336;2023-09-19T05:29:59;12.10;99.90
12384;DHT22;6256;63.808;20.336;2023-09-19T05:32:25;12.10;99.90
12384;DHT22;6256;63.808;20.336;2023-09-19T05:34:51;12.10;99.90
12384;DHT22;6256;63.808;20.336;2023-09-19T05:37:21;12.10;99.90
12384;DHT22;6256;63.808;20.336;2023-09-19T05:39:49;12.10;99.90
12384;DHT22;6256;63.808;20.336;2023-09-19T05:42:14;12.20;99.90
12384;DHT22;6256;63.808;20.336;2023-09-19T05:44:40;12.20;99.90
12384;DHT22;6256;63.808;20.336;2023-09-19T05:47:06;12.20;99.90
12384;DHT22;6256;63.808;20.336;2023-09-19T05:49:35;12.20;99.90
12384;DHT22;6256;63.808;20.336;2023-09-19T05:52:07;12.20;99.90
12384;DHT22;6256;63.808;20.336;2023-09-19T05:54:33;12.20;99.90
12384;DHT22;6256;63.808;20.336;2023-09-19T05:57:00;12.30;99.90
12384;DHT22;6256;63.808;20.336;2023-09-19T05:59:27;12.30;99.90
12384;DHT22;6256;63.808;20.336;2023-09-19T06:01:52;12.30;99.90
12384;DHT22;6256;63.808;20.336;2023-09-19T06:04:18;12.30;99.90
12384;DHT22;6256;63.808;20.336;2023-09-19T06:06:47;12.30;99.90
12384;DHT22;6256;63.808;20.336;2023-09-19T06:09:14;12.30;99.90
12384;DHT22;6256;63.808;20.336;2023-09-19T06:11:43;12.30;99.90
12384;DHT22;6256;63.808;20.336;2023-09-19T06:14:09;12.30;99.90
12384;DHT22;6256;63.808;20.336;2023-09-19T06:16:36;12.30;99.90
12384;DHT22;6256;63.808;20.336;2023-09-19T06:19:03;12.40;99.90
12384;DHT22;6256;63.808;20.336;2023-09-19T06:21:32;12.40;99.90
12384;DHT22;6256;63.808;20.336;2023-09-19T06:23:57;12.50;99.90
12384;DHT22;6256;63.808;20.336;2023-09-19T06:26:23;12.60;99.90
12384;DHT22;6256;63.808;20.336;2023-09-19T06:28:49;12.60;99.90
12384;DHT22;6256;63.808;20.336;2023-09-19T06:31:14;12.60;99.90
12384;DHT22;6256;63.808;20.336;2023-09-19T06:33:40;12.60;99.90
12384;DHT22;6256;63.808;20.336;2023-09-19T06:36:06;12.60;99.90
12384;DHT22;6256;63.808;20.336;2023-09-19T06:38:32;12.60;99.90
12384;DHT22;6256;63.808;20.336;2023-09-19T06:41:01;12.70;99.90
12384;DHT22;6256;63.808;20.336;2023-09-19T06:43:29;12.60;99.90
12384;DHT22;6256;63.808;20.336;2023-09-19T06:45:56;12.60;99.90
12384;DHT22;6256;63.808;20.336;2023-09-19T06:48:22;12.50;99.90
12384;DHT22;6256;63.808;20.336;2023-09-19T06:50:50;12.50;99.90
12384;DHT22;6256;63.808;20.336;2023-09-19T06:53:18;12.50;99.90
12384;DHT22;6256;63.808;20.336;2023-09-19T06:55:44;12.60;99.90
12384;DHT22;6256;63.808;20.336;2023-09-19T06:58:10;12.70;99.90
12384;DHT22;6256;63.808;20.336;2023-09-19T07:00:36;12.60;99.90
12384;DHT22;6256;63.808;20.336;2023-09-19T07:03:04;12.60;99.90
12384;DHT22;6256;63.808;20.336;2023-09-19T07:05:34;12.60;99.90
12384;DHT22;6256;63.808;20.336;2023-09-19T07:08:03;12.60;99.90
12384;DHT22;6256;63.808;20.336;2023-09-19T07:10:29;12.60;99.90
12384;DHT22;6256;63.808;20.336;2023-09-19T07:13:03;12.60;99.90
12384;DHT22;6256;63.808;20.336;2023-09-19T07:15:31;12.60;99.90
12384;DHT22;6256;63.808;20.336;2023-09-19T07:17:59;12.60;99.90
12384;DHT22;6256;63.808;20.336;2023-09-19T07:20:26;12.60;99.90
12384;DHT22;6256;63.808;20.336;2023-09-19T07:22:53;12.70;99.90
12384;DHT22;6256;63.808;20.336;2023-09-19T07:25:20;12.70;99.90
12384;DHT22;6256;63.808;20.336;2023-09-19T07:27:46;12.60;99.90
12384;DHT22;6256;63.808;20.336;2023-09-19T07:30:12;12.60;99.90
12384;DHT22;6256;63.808;20.336;2023-09-19T07:32:38;12.70;99.90
12384;DHT22;6256;63.808;20.336;2023-09-19T07:35:06;12.70;99.90
12384;DHT22;6256;63.808;20.336;2023-09-19T07:37:32;12.80;99.90
12384;DHT22;6256;63.808;20.336;2023-09-19T07:40:05;12.70;99.90
12384;DHT22;6256;63.808;20.336;2023-09-19T07:42:35;12.70;99.90
12384;DHT22;6256;63.808;20.336;2023-09-19T07:45:05;12.70;99.90
12384;DHT22;6256;63.808;20.336;2023-09-19T07:47:30;12.70;99.90
12384;DHT22;6256;63.808;20.336;2023-09-19T07:49:58;12.70;99.90
12384;DHT22;6256;63.808;20.336;2023-09-19T07:52:25;12.80;99.90
12384;DHT22;6256;63.808;20.336;2023-09-19T07:54:52;12.70;99.90
12384;DHT22;6256;63.808;20.336;2023-09-19T07:57:17;12.70;99.90
12384;DHT22;6256;63.808;20.336;2023-09-19T07:59:43;12.80;99.90
12384;DHT22;6256;63.808;20.336;2023-09-19T08:02:09;12.70;99.90
12384;DHT22;6256;63.808;20.336;2023-09-19T08:04:44;12.70;99.90
12384;DHT22;6256;63.808;20.336;2023-09-19T08:07:14;12.80;99.90
12384;DHT22;6256;63.808;20.336;2023-09-19T08:09:40;12.80;99.90
12384;DHT22;6256;63.808;20.336;2023-09-19T08:12:07;12.80;99.90
12384;DHT22;6256;63.808;20.336;2023-09-19T08:14:37;12.80;99.90
12384;DHT22;6256;63.808;20.336;2023-09-19T08:17:03;12.90;99.90
12384;DHT22;6256;63.808;20.336;2023-09-19T08:19:33;13.00;99.90
12384;DHT22;6256;63.808;20.336;2023-09-19T08:21:59;13.00;99.90
12384;DHT22;6256;63.808;20.336;2023-09-19T08:24:27;13.00;99.90
12384;DHT22;6256;63.808;20.336;2023-09-19T08:26:57;13.00;99.90
12384;DHT22;6256;63.808;20.336;2023-09-19T08:29:24;13.10;99.90
12384;DHT22;6256;63.808;20.336;2023-09-19T08:31:59;13.10;99.90
12384;DHT22;6256;63.808;20.336;2023-09-19T08:34:25;13.10;99.90
12384;DHT22;6256;63.808;20.336;2023-09-19T08:36:54;13.20;99.90
12384;DHT22;6256;63.808;20.336;2023-09-19T08:39:24;13.30;99.90
12384;DHT22;6256;63.808;20.336;2023-09-19T08:41:56;13.40;99.90
12384;DHT22;6256;63.808;20.336;2023-09-19T08:44:22;13.40;99.90
12384;DHT22;6256;63.808;20.336;2023-09-19T08:46:49;13.50;99.90
12384;DHT22;6256;63.808;20.336;2023-09-19T08:52:28;13.50;99.90
12384;DHT22;6256;63.808;20.336;2023-09-19T08:54:58;13.50;99.90
12384;DHT22;6256;63.808;20.336;2023-09-19T08:57:29;13.50;99.90
12384;DHT22;6256;63.808;20.336;2023-09-19T08:59:59;13.40;99.90
12384;DHT22;6256;63.808;20.336;2023-09-19T09:02:26;13.50;99.90
12384;DHT22;6256;63.808;20.336;2023-09-19T09:04:53;13.50;99.90
12384;DHT22;6256;63.808;20.336;2023-09-19T09:07:20;13.50;99.90
12384;DHT22;6256;63.808;20.336;2023-09-19T09:09:47;13.50;99.90
12384;DHT22;6256;63.808;20.336;2023-09-19T09:14:45;13.70;99.90
12384;DHT22;6256;63.808;20.336;2023-09-19T09:17:12;13.70;99.90
12384;DHT22;6256;63.808;20.336;2023-09-19T09:19:37;13.80;99.90
12384;DHT22;6256;63.808;20.336;2023-09-19T09:22:11;13.80;99.90
12384;DHT22;6256;63.808;20.336;2023-09-19T09:24:37;13.80;99.90
12384;DHT22;6256;63.808;20.336;2023-09-19T09:27:16;13.60;99.90
12384;DHT22;6256;63.808;20.336;2023-09-19T09:29:45;13.60;99.90
12384;DHT22;6256;63.808;20.336;2023-09-19T09:34:53;13.60;99.90
12384;DHT22;6256;63.808;20.336;2023-09-19T09:37:20;13.70;99.90
12384;DHT22;6256;63.808;20.336;2023-09-19T09:39:53;13.70;99.90
12384;DHT22;6256;63.808;20.336;2023-09-19T09:42:32;13.60;99.90
12384;DHT22;6256;63.808;20.336;2023-09-19T09:45:20;13.50;99.90
12384;DHT22;6256;63.808;20.336;2023-09-19T09:48:15;13.50;99.90
12384;DHT22;6256;63.808;20.336;2023-09-19T09:50:48;13.60;99.90
12384;DHT22;6256;63.808;20.336;2023-09-19T09:53:24;13.70;99.90
12384;DHT22;6256;63.808;20.336;2023-09-19T09:56:09;13.70;99.90
12384;DHT22;6256;63.808;20.336;2023-09-19T09:58:49;13.70;99.90
12384;DHT22;6256;63.808;20.336;2023-09-19T10:01:15;13.80;99.90
12384;DHT22;6256;63.808;20.336;2023-09-19T10:03:42;13.80;99.90
12384;DHT22;6256;63.808;20.336;2023-09-19T10:06:17;13.90;99.90
12384;DHT22;6256;63.808;20.336;2023-09-19T10:09:02;13.80;99.90
12384;DHT22;6256;63.808;20.336;2023-09-19T10:12:05;13.80;99.90
12384;DHT22;6256;63.808;20.336;2023-09-19T10:14:37;13.80;99.90
12384;DHT22;6256;63.808;20.336;2023-09-19T10:17:05;13.70;99.90
12384;DHT22;6256;63.808;20.336;2023-09-19T10:19:47;13.60;99.90
12384;DHT22;6256;63.808;20.336;2023-09-19T10:22:17;13.50;99.90
12384;DHT22;6256;63.808;20.336;2023-09-19T10:24:49;13.50;99.90
12384;DHT22;6256;63.808;20.336;2023-09-19T10:27:19;13.50;99.90
12384;DHT22;6256;63.808;20.336;2023-09-19T10:29:49;13.40;99.90
12384;DHT22;6256;63.808;20.336;2023-09-19T10:32:19;13.30;99.90
12384;DHT22;6256;63.808;20.336;2023-09-19T10:34:50;13.20;99.90
12384;DHT22;6256;63.808;20.336;2023-09-19T10:37:20;13.20;99.90
12384;DHT22;6256;63.808;20.336;2023-09-19T10:39:48;13.20;99.90
12384;DHT22;6256;63.808;20.336;2023-09-19T10:42:20;13.20;99.90
12384;DHT22;6256;63.808;20.336;2023-09-19T10:44:47;13.20;99.90
12384;DHT22;6256;63.808;20.336;2023-09-19T10:47:17;13.20;99.90
12384;DHT22;6256;63.808;20.336;2023-09-19T10:49:45;13.20;99.90
12384;DHT22;6256;63.808;20.336;2023-09-19T10:52:20;13.20;99.90
12384;DHT22;6256;63.808;20.336;2023-09-19T10:54:50;13.20;99.90
12384;DHT22;6256;63.808;20.336;2023-09-19T10:57:21;13.20;99.90
12384;DHT22;6256;63.808;20.336;2023-09-19T11:00:06;13.20;99.90
12384;DHT22;6256;63.808;20.336;2023-09-19T11:05:40;13.20;99.90
12384;DHT22;6256;63.808;20.336;2023-09-19T11:08:10;13.20;99.90
12384;DHT22;6256;63.808;20.336;2023-09-19T11:10:48;13.20;99.90
12384;DHT22;6256;63.808;20.336;2023-09-19T11:13:28;13.20;99.90
12384;DHT22;6256;63.808;20.336;2023-09-19T11:27:10;13.20;99.90
12384;DHT22;6256;63.808;20.336;2023-09-19T11:29:39;13.30;99.90
12384;DHT22;6256;63.808;20.336;2023-09-19T11:32:06;13.30;99.90
12384;DHT22;6256;63.808;20.336;2023-09-19T11:34:39;13.40;99.90
12384;DHT22;6256;63.808;20.336;2023-09-19T11:39:40;13.50;99.90
12384;DHT22;6256;63.808;20.336;2023-09-19T11:42:46;13.60;99.90
12384;DHT22;6256;63.808;20.336;2023-09-19T11:48:16;13.60;99.90
12384;DHT22;6256;63.808;20.336;2023-09-19T11:50:45;13.60;99.90
12384;DHT22;6256;63.808;20.336;2023-09-19T11:53:13;13.60;99.90
12384;DHT22;6256;63.808;20.336;2023-09-19T11:55:42;13.70;99.90
12384;DHT22;6256;63.808;20.336;2023-09-19T11:58:14;13.70;99.90
12384;DHT22;6256;63.808;20.336;2023-09-19T12:00:43;13.70;99.90
12384;DHT22;6256;63.808;20.336;2023-09-19T12:03:11;13.70;99.90
12384;DHT22;6256;63.808;20.336;2023-09-19T12:05:37;13.70;99.90
12384;DHT22;6256;63.808;20.336;2023-09-19T12:08:04;13.70;99.90
12384;DHT22;6256;63.808;20.336;2023-09-19T12:10:33;13.80;99.90
12384;DHT22;6256;63.808;20.336;2023-09-19T12:12:59;13.80;99.90
12384;DHT22;6256;63.808;20.336;2023-09-19T12:15:26;13.80;99.90
12384;DHT22;6256;63.808;20.336;2023-09-19T12:17:54;13.80;99.90
12384;DHT22;6256;63.808;20.336;2023-09-19T12:20:20;13.80;99.90
12384;DHT22;6256;63.808;20.336;2023-09-19T12:22:47;13.80;99.90
12384;DHT22;6256;63.808;20.336;2023-09-19T12:25:13;13.80;99.90
12384;DHT22;6256;63.808;20.336;2023-09-19T12:27:48;13.80;99.90
12384;DHT22;6256;63.808;20.336;2023-09-19T12:30:18;13.80;99.90
12384;DHT22;6256;63.808;20.336;2023-09-19T12:32:46;13.80;99.90
12384;DHT22;6256;63.808;20.336;2023-09-19T12:35:31;13.90;99.90
12384;DHT22;6256;63.808;20.336;2023-09-19T12:38:01;13.90;99.90
12384;DHT22;6256;63.808;20.336;2023-09-19T12:40:28;13.90;99.90
12384;DHT22;6256;63.808;20.336;2023-09-19T12:42:55;14.00;99.90
12384;DHT22;6256;63.808;20.336;2023-09-19T12:51:07;14.10;99.90
12384;DHT22;6256;63.808;20.336;2023-09-19T12:53:36;14.10;99.90
12384;DHT22;6256;63.808;20.336;2023-09-19T12:56:11;14.10;99.90
12384;DHT22;6256;63.808;20.336;2023-09-19T12:59:08;14.20;99.90
12384;DHT22;6256;63.808;20.336;2023-09-19T13:01:37;14.20;99.90
12384;DHT22;6256;63.808;20.336;2023-09-19T13:04:21;14.30;99.90
12384;DHT22;6256;63.808;20.336;2023-09-19T13:07:00;14.30;99.90
12384;DHT22;6256;63.808;20.336;2023-09-19T13:09:27;14.20;99.90
12384;DHT22;6256;63.808;20.336;2023-09-19T13:12:01;14.20;99.90
12384;DHT22;6256;63.808;20.336;2023-09-19T13:14:31;14.20;99.90
12384;DHT22;6256;63.808;20.336;2023-09-19T13:19:49;14.20;99.90
12384;DHT22;6256;63.808;20.336;2023-09-19T13:22:40;14.20;99.90
12384;DHT22;6256;63.808;20.336;2023-09-19T13:25:09;14.30;99.90
12384;DHT22;6256;63.808;20.336;2023-09-19T13:27:53;14.30;99.90
12384;DHT22;6256;63.808;20.336;2023-09-19T13:30:22;14.30;99.90
12384;DHT22;6256;63.808;20.336;2023-09-19T13:32:48;14.30;99.90
12384;DHT22;6256;63.808;20.336;2023-09-19T13:35:15;14.30;99.90
12384;DHT22;6256;63.808;20.336;2023-09-19T13:37:42;14.40;99.90
12384;DHT22;6256;63.808;20.336;2023-09-19T13:40:09;14.40;99.90
12384;DHT22;6256;63.808;20.336;2023-09-19T13:42:35;14.40;99.90
12384;DHT22;6256;63.808;20.336;2023-09-19T13:45:02;14.40;99.90
12384;DHT22;6256;63.808;20.336;2023-09-19T13:47:32;14.40;99.90
12384;DHT22;6256;63.808;20.336;2023-09-19T13:49:59;14.40;99.90
12384;DHT22;6256;63.808;20.336;2023-09-19T13:52:26;14.50;99.90
12384;DHT22;6256;63.808;20.336;2023-09-19T13:54:54;14.40;99.90
12384;DHT22;6256;63.808;20.336;2023-09-19T13:57:26;14.40;99.90
12384;DHT22;6256;63.808;20.336;2023-09-19T13:59:52;14.50;99.90
12384;DHT22;6256;63.808;20.336;2023-09-19T14:02:22;14.50;99.90
12384;DHT22;6256;63.808;20.336;2023-09-19T14:04:53;14.50;99.90
12384;DHT22;6256;63.808;20.336;2023-09-19T14:07:19;14.60;99.90
12384;DHT22;6256;63.808;20.336;2023-09-19T14:09:45;14.50;99.90
12384;DHT22;6256;63.808;20.336;2023-09-19T14:12:12;14.60;99.90
12384;DHT22;6256;63.808;20.336;2023-09-19T14:14:37;14.60;99.90
12384;DHT22;6256;63.808;20.336;2023-09-19T14:17:04;14.60;99.90
12384;DHT22;6256;63.808;20.336;2023-09-19T14:19:30;14.60;99.90
12384;DHT22;6256;63.808;20.336;2023-09-19T14:21:56;14.60;99.90
12384;DHT22;6256;63.808;20.336;2023-09-19T14:24:22;14.70;99.90
12384;DHT22;6256;63.808;20.336;2023-09-19T14:26:49;14.70;99.90
12384;DHT22;6256;63.808;20.336;2023-09-19T14:29:15;14.70;99.90
12384;DHT22;6256;63.808;20.336;2023-09-19T14:31:41;14.70;99.90
12384;DHT22;6256;63.808;20.336;2023-09-19T14:34:07;14.70;99.90
12384;DHT22;6256;63.808;20.336;2023-09-19T14:36:36;14.80;99.90
12384;DHT22;6256;63.808;20.336;2023-09-19T14:39:02;14.80;99.90
12384;DHT22;6256;63.808;20.336;2023-09-19T14:41:28;14.80;99.90
12384;DHT22;6256;63.808;20.336;2023-09-19T14:46:21;14.80;99.90
12384;DHT22;6256;63.808;20.336;2023-09-19T14:48:47;15.00;99.90
12384;DHT22;6256;63.808;20.336;2023-09-19T14:51:13;14.90;99.90
12384;DHT22;6256;63.808;20.336;2023-09-19T14:53:42;15.00;99.90
12384;DHT22;6256;63.808;20.336;2023-09-19T14:56:09;15.10;99.90
12384;DHT22;6256;63.808;20.336;2023-09-19T14:58:35;15.10;99.90
12384;DHT22;6256;63.808;20.336;2023-09-19T15:01:09;15.20;99.90
12384;DHT22;6256;63.808;20.336;2023-09-19T15:03:39;15.20;99.90
12384;DHT22;6256;63.808;20.336;2023-09-19T15:06:10;15.20;99.90
12384;DHT22;6256;63.808;20.336;2023-09-19T15:08:40;15.20;99.90
12384;DHT22;6256;63.808;20.336;2023-09-19T15:11:09;15.30;99.90
12384;DHT22;6256;63.808;20.336;2023-09-19T15:13:36;15.30;99.90
12384;DHT22;6256;63.808;20.336;2023-09-19T15:16:03;15.30;99.90
12384;DHT22;6256;63.808;20.336;2023-09-19T15:18:30;15.30;99.90
12384;DHT22;6256;63.808;20.336;2023-09-19T15:20:57;15.40;99.90
12384;DHT22;6256;63.808;20.336;2023-09-19T15:23:25;15.40;99.90
12384;DHT22;6256;63.808;20.336;2023-09-19T15:25:51;15.40;99.90
12384;DHT22;6256;63.808;20.336;2023-09-19T15:28:18;15.40;99.90
12384;DHT22;6256;63.808;20.336;2023-09-19T15:30:46;15.50;99.90
12384;DHT22;6256;63.808;20.336;2023-09-19T15:35:38;15.50;99.90
12384;DHT22;6256;63.808;20.336;2023-09-19T15:38:04;15.50;99.90
12384;DHT22;6256;63.808;20.336;2023-09-19T15:40:29;15.50;99.90
12384;DHT22;6256;63.808;20.336;2023-09-19T15:42:55;15.50;99.90
12384;DHT22;6256;63.808;20.336;2023-09-19T15:45:24;15.50;99.90
12384;DHT22;6256;63.808;20.336;2023-09-19T15:47:51;15.50;99.90
12384;DHT22;6256;63.808;20.336;2023-09-19T15:50:17;15.60;99.90
12384;DHT22;6256;63.808;20.336;2023-09-19T15:52:44;15.60;99.90
12384;DHT22;6256;63.808;20.336;2023-09-19T15:55:09;15.50;99.90
12384;DHT22;6256;63.808;20.336;2023-09-19T15:57:37;15.50;99.90
12384;DHT22;6256;63.808;20.336;2023-09-19T16:00:03;15.60;99.90
12384;DHT22;6256;63.808;20.336;2023-09-19T16:02:32;15.60;99.90
12384;DHT22;6256;63.808;20.336;2023-09-19T16:04:58;15.60;99.90
12384;DHT22;6256;63.808;20.336;2023-09-19T16:07:24;15.60;99.90
12384;DHT22;6256;63.808;20.336;2023-09-19T16:09:51;15.60;99.90
12384;DHT22;6256;63.808;20.336;2023-09-19T16:12:17;15.60;99.90
12384;DHT22;6256;63.808;20.336;2023-09-19T16:14:43;15.60;99.90
12384;DHT22;6256;63.808;20.336;2023-09-19T16:17:08;15.60;99.90
12384;DHT22;6256;63.808;20.336;2023-09-19T16:19:36;15.60;99.90
12384;DHT22;6256;63.808;20.336;2023-09-19T16:22:02;15.60;99.90
12384;DHT22;6256;63.808;20.336;2023-09-19T16:24:27;15.60;99.90
12384;DHT22;6256;63.808;20.336;2023-09-19T16:26:54;15.70;99.90
12384;DHT22;6256;63.808;20.336;2023-09-19T16:29:20;15.70;99.90
12384;DHT22;6256;63.808;20.336;2023-09-19T16:31:47;15.70;99.90